createdAt,value
2023-03-04T00:05:06.005Z,151.6
2023-03-04T00:10:02.559Z,143.5
2023-03-04T00:20:06.484Z,147.3
2023-03-04T00:25:01.585Z,164.5
2023-03-04T00:35:01.978Z,195.8
2023-03-04T00:50:01.952Z,196.5
2023-03-04T01:05:01.949Z,138.1
2023-03-04T01:10:01.477Z,132.5
2023-03-04T01:20:01.537Z,158.0
2023-03-04T01:25:07.690Z,192.4
2023-03-04T01:30:01.545Z,248.8
2023-03-04T01:35:01.542Z,317.8
2023-03-04T01:40:01.470Z,322.5
2023-03-04T01:45:01.641Z,337.8
2023-03-04T01:50:01.853Z,366.2
2023-03-04T01:55:01.555Z,343.6
2023-03-04T02:15:01.964Z,251.6
2023-03-04T02:20:01.812Z,151.3
2023-03-04T02:50:01.327Z,51.7
2023-03-04T02:55:01.263Z,54.7
2023-03-04T03:00:01.160Z,87.5
2023-03-04T03:05:01.290Z,86.5
2023-03-04T03:10:01.259Z,81.7
2023-03-04T03:20:01.321Z,70.6
2023-03-04T03:25:01.315Z,37.5
2023-03-04T03:35:02.076Z,22.9
2023-03-04T03:40:01.202Z,8.1
2023-03-04T03:50:02.249Z,46.0
2023-03-04T03:55:02.486Z,44.0
2023-03-04T04:00:01.220Z,52.6
2023-03-04T04:10:06.603Z,34.0
2023-03-04T04:15:01.292Z,24.6
2023-03-04T04:20:07.213Z,28.3
2023-03-04T04:25:01.702Z,31.4
2023-03-04T04:35:01.698Z,69.6
2023-03-04T04:40:02.220Z,69.4
2023-03-04T04:45:01.252Z,70.8
2023-03-04T04:50:06.327Z,70.5
2023-03-04T04:55:01.930Z,46.6
2023-03-04T05:00:01.255Z,25.4
2023-03-04T05:05:01.324Z,40.6
2023-03-04T05:10:06.294Z,41.2
2023-03-04T05:20:01.226Z,41.5
2023-03-04T05:25:01.468Z,37.5
2023-03-04T05:30:01.704Z,22.3
2023-03-04T05:35:01.500Z,16.0
2023-03-04T05:40:01.352Z,12.1
2023-03-04T05:50:01.378Z,5.6
2023-03-04T05:55:01.459Z,9.8
2023-03-04T06:00:01.247Z,9.4
2023-03-04T06:05:02.865Z,8.6
2023-03-04T06:10:01.618Z,8.6
2023-03-04T06:15:01.561Z,8.3
2023-03-04T06:20:02.286Z,6.7
2023-03-04T06:25:06.446Z,8.9
2023-03-04T06:30:01.371Z,8.9
2023-03-04T06:35:02.277Z,8.7
2023-03-04T06:40:01.296Z,4.9
2023-03-04T06:45:01.891Z,2.3
2023-03-04T09:25:03.461Z,2.4
2023-03-04T09:30:01.291Z,2.5
2023-03-04T10:05:02.710Z,3.5
2023-03-04T10:10:06.292Z,3.6
2023-03-04T10:25:02.051Z,11.8
2023-03-04T10:45:01.446Z,25.2
2023-03-04T10:50:01.256Z,29.2
2023-03-04T10:55:02.427Z,29.9
2023-03-04T11:00:01.237Z,25.3
2023-03-04T11:20:02.686Z,20.5
2023-03-04T11:25:07.780Z,21.3
2023-03-04T11:30:01.845Z,16.7
2023-03-04T11:35:02.070Z,13.6
